TimeEST,TemperatureF,Dew PointF,Humidity,Sea Level PressureIn,VisibilityMPH,Wind Direction,Wind SpeedMPH,Gust SpeedMPH,PrecipitationIn,Events,Conditions,WindDirDegrees,DateUTC
12:53 AM,72.0,64.0,76,29.89,10.0,West,8.1,-,N/A,,Overcast,260,2013-02-27 05:53:00
1:53 AM,69.1,62.1,78,29.89,10.0,West,6.9,-,N/A,,Mostly Cloudy,280,2013-02-27 06:53:00
2:03 AM,68.0,62.6,83,29.89,9.0,West,6.9,-,N/A,,Scattered Clouds,280,2013-02-27 07:03:00
2:53 AM,66.0,62.1,87,29.88,8.0,WNW,5.8,-,N/A,,Clear,290,2013-02-27 07:53:00
3:53 AM,63.0,61.0,93,29.89,6.0,West,3.5,-,N/A,,Clear,270,2013-02-27 08:53:00
4:53 AM,62.1,61.0,96,29.90,7.0,SW,3.5,-,N/A,,Clear,230,2013-02-27 09:53:00
5:53 AM,62.1,60.1,93,29.92,6.0,Calm,Calm,-,N/A,,Clear,0,2013-02-27 10:53:00
6:50 AM,60.8,57.2,88,29.93,1.8,Calm,Calm,-,N/A,,Clear,0,2013-02-27 11:50:00
6:53 AM,59.0,57.9,96,29.93,1.0,Calm,Calm,-,N/A,,Clear,0,2013-02-27 11:53:00
7:01 AM,59.0,57.2,94,29.93,5.0,WNW,3.5,-,N/A,,Mostly Cloudy,290,2013-02-27 12:01:00
7:53 AM,63.0,61.0,93,29.94,7.0,WNW,3.5,-,N/A,,Clear,300,2013-02-27 12:53:00
8:53 AM,69.1,61.0,75,29.96,9.0,Variable,5.8,-,N/A,,Partly Cloudy,0,2013-02-27 13:53:00
9:53 AM,71.6,59.0,64,29.97,10.0,NW,6.9,-,N/A,,Partly Cloudy,320,2013-02-27 14:53:00
10:53 AM,73.9,59.0,59,29.97,10.0,NW,8.1,-,N/A,,Mostly Cloudy,310,2013-02-27 15:53:00
11:53 AM,75.0,57.9,55,29.95,10.0,Variable,6.9,-,N/A,,Scattered Clouds,0,2013-02-27 16:53:00
12:53 PM,78.1,57.0,48,29.94,10.0,West,5.8,-,N/A,,Clear,280,2013-02-27 17:53:00
1:53 PM,73.0,61.0,66,29.92,10.0,NE,6.9,-,N/A,,Scattered Clouds,50,2013-02-27 18:53:00
2:53 PM,71.1,60.1,68,29.93,10.0,East,9.2,-,N/A,,Overcast,80,2013-02-27 19:53:00
3:53 PM,70.0,59.0,68,29.91,10.0,East,8.1,-,N/A,,Overcast,90,2013-02-27 20:53:00
4:53 PM,70.0,60.1,71,29.92,10.0,SE,6.9,-,N/A,,Overcast,140,2013-02-27 21:53:00
5:53 PM,70.0,61.0,73,29.92,10.0,SSE,5.8,-,N/A,,Mostly Cloudy,150,2013-02-27 22:53:00
6:18 PM,69.8,60.8,73,29.92,9.0,Calm,Calm,-,N/A,,Overcast,0,2013-02-27 23:18:00
6:30 PM,69.8,60.8,73,29.92,10.0,Calm,Calm,-,N/A,,Overcast,0,2013-02-27 23:30:00
6:53 PM,66.9,60.1,79,29.93,10.0,SSW,9.2,-,N/A,,Overcast,200,2013-02-27 23:53:00
7:08 PM,66.2,60.8,83,29.93,10.0,SSW,5.8,-,N/A,,Mostly Cloudy,210,2013-02-28 00:08:00
7:53 PM,64.9,61.0,87,29.92,10.0,Calm,Calm,-,N/A,,Clear,0,2013-02-28 00:53:00
8:53 PM,64.0,61.0,90,29.94,9.0,SW,3.5,-,N/A,,Scattered Clouds,220,2013-02-28 01:53:00
9:53 PM,64.9,62.1,90,29.96,9.0,SW,6.9,-,N/A,,Mostly Cloudy,220,2013-02-28 02:53:00
10:53 PM,64.0,61.0,90,29.96,9.0,WSW,5.8,-,N/A,,Clear,250,2013-02-28 03:53:00
11:53 PM,61.0,59.0,93,29.95,8.0,West,5.8,-,N/A,,Clear,270,2013-02-28 04:53:00